createdAt,value
2022-09-06T00:00:40.663Z,15.15
2022-09-06T00:03:08.205Z,15.14
2022-09-06T00:05:35.699Z,15.14
2022-09-06T00:08:03.969Z,15.17
2022-09-06T00:10:31.163Z,15.16
2022-09-06T00:13:02.559Z,15.17
2022-09-06T00:15:29.092Z,15.19
2022-09-06T00:17:58.341Z,15.15
2022-09-06T00:20:27.227Z,15.14
2022-09-06T00:23:02.093Z,15.12
2022-09-06T00:25:29.422Z,15.15
2022-09-06T00:27:57.319Z,15.19
2022-09-06T00:30:24.882Z,15.19
2022-09-06T00:32:51.730Z,15.23
2022-09-06T00:35:18.536Z,15.20
2022-09-06T00:37:45.036Z,15.16
2022-09-06T00:40:12.487Z,15.11
2022-09-06T00:42:38.996Z,15.09
2022-09-06T00:45:07.284Z,15.07
2022-09-06T00:47:35.257Z,15.07
2022-09-06T00:50:02.536Z,15.06
2022-09-06T00:52:30.430Z,14.99
2022-09-06T00:54:57.135Z,14.97
2022-09-06T00:57:27.126Z,14.99
2022-09-06T00:59:55.616Z,14.99
2022-09-06T01:02:22.183Z,14.98
2022-09-06T01:04:51.087Z,15.01
2022-09-06T01:07:39.274Z,14.97
2022-09-06T01:10:23.119Z,14.90
2022-09-06T01:13:01.459Z,14.93
2022-09-06T01:15:41.154Z,14.91
2022-09-06T01:18:28.294Z,14.86
2022-09-06T01:21:03.864Z,14.80
2022-09-06T01:23:49.826Z,14.83
2022-09-06T01:26:37.916Z,14.79
2022-09-06T01:29:28.204Z,14.78
2022-09-06T01:32:12.158Z,14.77
2022-09-06T01:34:45.519Z,14.75
2022-09-06T01:37:15.888Z,14.72
2022-09-06T01:39:42.562Z,14.72
2022-09-06T01:42:23.094Z,14.73
2022-09-06T01:45:00.246Z,14.71
2022-09-06T01:48:04.249Z,14.70
2022-09-06T01:50:48.920Z,14.69
2022-09-06T01:53:26.993Z,14.70
2022-09-06T01:56:24.018Z,14.67
2022-09-06T01:59:24.495Z,14.67
2022-09-06T02:01:56.820Z,14.70
2022-09-06T02:04:32.807Z,14.69
2022-09-06T02:07:02.897Z,14.69
2022-09-06T02:09:35.945Z,14.74
2022-09-06T02:12:05.337Z,14.69
2022-09-06T02:14:39.422Z,14.67
2022-09-06T02:17:08.707Z,14.61
2022-09-06T02:19:56.600Z,14.61
2022-09-06T02:22:29.825Z,14.65
2022-09-06T02:25:00.124Z,14.63
2022-09-06T02:27:27.254Z,14.62
2022-09-06T02:29:53.749Z,14.64
2022-09-06T02:32:23.212Z,14.65
2022-09-06T02:34:55.465Z,14.68
2022-09-06T02:37:26.031Z,14.69
2022-09-06T02:39:55.182Z,14.67
2022-09-06T02:42:22.953Z,14.65
2022-09-06T02:44:49.283Z,14.64
2022-09-06T02:47:16.646Z,14.64
2022-09-06T02:49:42.997Z,14.62
2022-09-06T02:52:09.384Z,14.64
2022-09-06T02:54:35.731Z,14.66
2022-09-06T02:57:02.067Z,14.65
2022-09-06T02:59:28.416Z,14.66
2022-09-06T03:01:54.776Z,14.67
2022-09-06T03:04:21.192Z,14.64
2022-09-06T03:06:47.582Z,14.62
2022-09-06T03:09:13.977Z,14.64
2022-09-06T03:11:40.360Z,14.58
2022-09-06T03:14:06.734Z,14.59
2022-09-06T03:16:33.410Z,14.61
2022-09-06T03:18:59.782Z,14.58
2022-09-06T03:21:26.381Z,14.50
2022-09-06T03:23:52.855Z,14.50
2022-09-06T03:26:19.215Z,14.49
2022-09-06T03:28:45.933Z,14.45
2022-09-06T03:31:12.391Z,14.46
2022-09-06T03:33:38.884Z,14.41
2022-09-06T03:36:05.378Z,14.45
2022-09-06T03:38:31.741Z,14.43
2022-09-06T03:40:58.534Z,14.38
2022-09-06T03:43:26.811Z,14.35
2022-09-06T03:45:55.590Z,14.35
2022-09-06T03:48:23.756Z,14.33
2022-09-06T03:50:52.575Z,14.33
2022-09-06T03:53:19.889Z,14.36
2022-09-06T03:55:51.608Z,14.36
2022-09-06T03:58:20.693Z,14.35
2022-09-06T04:00:47.381Z,14.31
2022-09-06T04:03:14.148Z,14.35
2022-09-06T04:05:44.406Z,14.35
2022-09-06T04:08:10.776Z,14.31
2022-09-06T04:10:38.067Z,14.23
2022-09-06T04:13:04.438Z,14.26
2022-09-06T04:15:30.799Z,14.25
2022-09-06T04:17:58.301Z,14.23
2022-09-06T04:20:24.674Z,14.22
2022-09-06T04:22:51.031Z,14.20
2022-09-06T04:25:17.439Z,14.23
2022-09-06T04:27:43.765Z,14.21
2022-09-06T04:30:10.356Z,14.19
2022-09-06T04:32:36.799Z,14.19
2022-09-06T04:35:03.518Z,14.19
2022-09-06T04:37:29.871Z,14.21
2022-09-06T04:39:56.373Z,14.19
2022-09-06T04:42:22.758Z,14.18
2022-09-06T04:44:49.096Z,14.17
2022-09-06T04:47:18.049Z,14.09
2022-09-06T04:49:45.332Z,14.12
2022-09-06T04:52:11.842Z,14.14
2022-09-06T04:54:38.227Z,14.16
2022-09-06T04:57:04.751Z,14.15
2022-09-06T04:59:31.119Z,14.12
2022-09-06T05:01:57.563Z,14.06
2022-09-06T05:04:24.169Z,14.01
2022-09-06T05:06:50.714Z,14.03
2022-09-06T05:09:17.157Z,14.01
2022-09-06T05:11:43.486Z,14.01
2022-09-06T05:14:09.837Z,14.05
2022-09-06T05:16:36.318Z,14.07
2022-09-06T05:19:02.755Z,14.00
2022-09-06T05:21:29.079Z,14.01
2022-09-06T05:23:58.483Z,13.95
2022-09-06T05:26:25.083Z,13.91
2022-09-06T05:28:51.510Z,13.94
2022-09-06T05:31:24.889Z,13.93
2022-09-06T05:33:55.368Z,13.88
2022-09-06T05:36:23.447Z,13.90
2022-09-06T05:38:51.556Z,13.95
2022-09-06T05:41:18.192Z,13.99
2022-09-06T05:43:45.121Z,14.01
2022-09-06T05:46:12.670Z,13.97
2022-09-06T05:48:39.167Z,14.02
2022-09-06T05:51:08.597Z,14.06
2022-09-06T05:53:43.295Z,14.09
2022-09-06T05:56:11.672Z,14.10
2022-09-06T05:58:38.900Z,14.14
2022-09-06T06:01:14.255Z,14.17
2022-09-06T06:03:40.685Z,14.28
2022-09-06T06:06:07.152Z,14.35
2022-09-06T06:08:35.172Z,14.39
2022-09-06T06:11:02.392Z,14.46
2022-09-06T06:13:29.844Z,14.54
2022-09-06T06:15:56.561Z,14.59
2022-09-06T06:18:23.212Z,14.71
2022-09-06T06:20:49.656Z,14.74
2022-09-06T06:23:16.136Z,14.72
2022-09-06T06:25:42.551Z,14.77
2022-09-06T06:28:08.925Z,14.75
2022-09-06T06:30:35.854Z,14.84
2022-09-06T06:33:02.446Z,14.91
2022-09-06T06:35:28.871Z,15.01
2022-09-06T06:37:56.389Z,15.02
2022-09-06T06:40:22.791Z,14.97
2022-09-06T06:42:49.152Z,15.04
2022-09-06T06:45:15.588Z,15.07
2022-09-06T06:47:41.997Z,15.07
2022-09-06T06:50:08.679Z,15.12
2022-09-06T06:52:35.008Z,15.14
2022-09-06T06:55:01.346Z,15.20
2022-09-06T06:57:27.762Z,15.13
2022-09-06T06:59:54.136Z,15.18
2022-09-06T07:02:20.552Z,15.24
2022-09-06T07:04:47.481Z,15.19
2022-09-06T07:12:41.946Z,15.15
2022-09-06T07:15:09.019Z,15.20
2022-09-06T07:17:35.565Z,15.22
2022-09-06T07:20:17.655Z,15.23
2022-09-06T07:22:44.051Z,15.28
2022-09-06T07:25:14.363Z,15.19
2022-09-06T07:30:15.695Z,15.26
2022-09-06T07:32:42.088Z,15.28
2022-09-06T07:35:08.964Z,15.29
2022-09-06T07:37:35.401Z,15.37
2022-09-06T07:40:03.053Z,15.41
2022-09-06T07:42:36.074Z,15.34
2022-09-06T07:45:04.126Z,15.43
2022-09-06T07:53:09.596Z,15.45
2022-09-06T07:55:39.440Z,15.40
2022-09-06T07:58:05.820Z,15.42
2022-09-06T08:00:32.663Z,15.45
2022-09-06T08:02:59.188Z,15.43
2022-09-06T08:10:58.581Z,15.55
2022-09-06T08:13:24.949Z,15.56
2022-09-06T08:15:59.293Z,15.66
2022-09-06T08:18:25.866Z,15.69
2022-09-06T08:20:52.297Z,15.82
2022-09-06T08:23:18.732Z,15.80
2022-09-06T08:25:45.073Z,15.83
2022-09-06T08:28:11.484Z,15.85
2022-09-06T08:30:37.870Z,15.74
2022-09-06T08:33:04.321Z,15.78
2022-09-06T08:35:30.731Z,15.95
2022-09-06T08:38:00.095Z,16.04
2022-09-06T08:40:26.470Z,16.03
2022-09-06T08:42:52.915Z,16.05
2022-09-06T08:45:19.689Z,16.17
2022-09-06T08:47:46.043Z,16.21
2022-09-06T08:50:12.786Z,16.36
2022-09-06T08:53:18.170Z,16.46
2022-09-06T08:55:52.796Z,16.55
2022-09-06T08:58:35.433Z,16.56
2022-09-06T09:01:14.919Z,16.72
2022-09-06T09:03:43.224Z,16.78
2022-09-06T09:06:10.847Z,16.76
2022-09-06T09:08:37.140Z,16.79
2022-09-06T09:11:07.382Z,16.91
2022-09-06T09:13:59.160Z,16.87
2022-09-06T09:16:26.110Z,16.91
2022-09-06T09:18:55.788Z,17.04
2022-09-06T09:21:29.609Z,17.09
2022-09-06T09:24:01.744Z,17.04
2022-09-06T09:26:35.015Z,16.96
2022-09-06T09:29:09.906Z,17.03
2022-09-06T09:31:52.902Z,17.11
2022-09-06T09:34:39.746Z,17.14
2022-09-06T09:40:29.989Z,17.10
2022-09-06T09:43:11.402Z,17.14
2022-09-06T09:45:37.802Z,17.21
2022-09-06T09:48:24.639Z,17.28
2022-09-06T09:50:51.077Z,17.30
2022-09-06T09:53:21.439Z,17.32
2022-09-06T09:55:49.591Z,17.43
2022-09-06T09:58:29.722Z,17.44
2022-09-06T10:01:14.926Z,17.49
2022-09-06T10:09:21.678Z,17.52
2022-09-06T10:11:54.198Z,17.58
2022-09-06T10:14:28.166Z,17.65
2022-09-06T10:16:55.326Z,17.71
2022-09-06T10:19:26.656Z,17.83
2022-09-06T10:21:59.970Z,17.77
2022-09-06T10:24:48.992Z,17.75
2022-09-06T10:27:23.323Z,17.80
2022-09-06T10:30:03.912Z,17.82
2022-09-06T10:32:48.054Z,17.90
2022-09-06T10:35:26.845Z,17.90
2022-09-06T10:38:14.027Z,17.83
2022-09-06T10:41:05.743Z,17.81
2022-09-06T10:43:54.356Z,17.92
2022-09-06T10:46:26.220Z,17.84
2022-09-06T10:48:55.815Z,17.81
2022-09-06T10:51:41.154Z,17.81
2022-09-06T10:54:13.309Z,17.86
2022-09-06T10:56:55.521Z,17.87
2022-09-06T10:59:39.670Z,17.83
2022-09-06T11:02:43.508Z,17.80
2022-09-06T11:10:55.596Z,17.83
2022-09-06T11:13:28.213Z,17.85
2022-09-06T11:16:13.247Z,17.85
2022-09-06T11:18:58.716Z,17.91
2022-09-06T11:21:37.204Z,17.94
2022-09-06T11:24:30.897Z,17.95
2022-09-06T11:27:24.744Z,18.03
2022-09-06T11:29:56.333Z,18.09
2022-09-06T11:32:48.440Z,18.12
2022-09-06T11:35:27.986Z,18.12
2022-09-06T11:38:22.014Z,18.09
2022-09-06T11:41:00.312Z,18.11
2022-09-06T11:43:51.938Z,18.08
2022-09-06T11:46:33.641Z,18.19
2022-09-06T11:49:03.941Z,18.24
2022-09-06T11:51:43.298Z,18.31
2022-09-06T11:54:18.822Z,18.28
2022-09-06T11:57:13.718Z,18.33
2022-09-06T11:59:51.612Z,18.25
2022-09-06T12:02:39.038Z,18.28
2022-09-06T12:05:07.202Z,18.32
2022-09-06T12:07:35.646Z,18.29
2022-09-06T12:10:42.224Z,18.26
2022-09-06T12:13:45.567Z,18.31
2022-09-06T12:16:13.237Z,18.36
2022-09-06T12:18:48.893Z,18.43
2022-09-06T12:21:36.613Z,18.52
2022-09-06T12:24:03.869Z,18.48
2022-09-06T12:27:05.709Z,18.50
2022-09-06T12:29:32.200Z,18.59
2022-09-06T12:32:00.716Z,18.55
2022-09-06T12:34:31.279Z,18.57
2022-09-06T12:37:04.378Z,18.57
2022-09-06T12:39:30.972Z,18.55
2022-09-06T12:42:04.973Z,18.56
2022-09-06T12:44:42.910Z,18.63
2022-09-06T12:47:28.969Z,18.56
2022-09-06T12:50:25.045Z,18.57
2022-09-06T12:52:56.841Z,18.58
2022-09-06T12:55:33.110Z,18.65
2022-09-06T12:58:02.876Z,18.71
2022-09-06T13:00:45.631Z,18.74
2022-09-06T13:03:29.617Z,18.61
2022-09-06T13:05:57.341Z,18.58
2022-09-06T13:08:39.216Z,18.56
2022-09-06T13:11:16.062Z,18.64
2022-09-06T13:13:51.338Z,18.65
2022-09-06T13:16:26.583Z,18.72
2022-09-06T13:18:54.224Z,18.73
2022-09-06T13:21:32.852Z,18.67
2022-09-06T13:24:03.807Z,18.64
2022-09-06T13:26:40.113Z,18.62
2022-09-06T13:29:22.417Z,18.62
2022-09-06T13:31:55.791Z,18.62
2022-09-06T13:34:25.007Z,18.57
2022-09-06T13:36:54.229Z,18.57
2022-09-06T13:39:39.297Z,18.57
2022-09-06T13:42:23.426Z,18.60
2022-09-06T13:44:50.951Z,18.57
2022-09-06T13:47:17.300Z,18.51
2022-09-06T13:49:43.620Z,18.57
2022-09-06T13:52:09.985Z,18.56
2022-09-06T13:54:36.614Z,18.61
2022-09-06T13:57:03.153Z,18.66
2022-09-06T13:59:31.365Z,18.67
2022-09-06T14:02:15.805Z,18.62
2022-09-06T14:04:42.600Z,18.56
2022-09-06T14:07:09.278Z,18.47
2022-09-06T14:09:35.981Z,18.39
2022-09-06T14:12:36.769Z,18.21
2022-09-06T14:15:04.489Z,18.20
2022-09-06T14:17:32.717Z,18.26
2022-09-06T14:19:59.209Z,18.21
2022-09-06T14:22:25.633Z,18.22
2022-09-06T14:24:52.066Z,18.15
2022-09-06T14:27:18.451Z,18.24
2022-09-06T14:29:44.815Z,18.29
2022-09-06T14:32:11.158Z,18.25
2022-09-06T14:34:37.492Z,18.25
2022-09-06T14:37:03.904Z,18.19
2022-09-06T14:39:30.357Z,18.13
2022-09-06T14:41:56.776Z,18.13
2022-09-06T14:44:23.201Z,18.22
2022-09-06T14:46:53.245Z,18.24
2022-09-06T14:49:20.599Z,18.27
2022-09-06T14:51:47.117Z,18.29
2022-09-06T14:54:15.803Z,18.24
2022-09-06T14:56:44.028Z,18.19
2022-09-06T14:59:11.555Z,18.18
2022-09-06T15:01:39.193Z,18.20
2022-09-06T15:04:09.227Z,18.19
2022-09-06T15:06:39.062Z,18.19
2022-09-06T15:09:07.480Z,18.19
2022-09-06T15:11:39.537Z,18.21
2022-09-06T15:14:11.939Z,18.29
2022-09-06T15:16:38.462Z,18.26
2022-09-06T15:19:05.181Z,18.27
2022-09-06T15:21:32.219Z,18.29
2022-09-06T15:23:59.931Z,18.28
2022-09-06T15:26:26.299Z,18.28
2022-09-06T15:28:52.753Z,18.33
2022-09-06T15:31:19.519Z,18.30
2022-09-06T15:33:48.632Z,18.30
2022-09-06T15:36:16.114Z,18.36
2022-09-06T15:38:48.024Z,18.40
2022-09-06T15:41:19.361Z,18.38
2022-09-06T15:43:47.750Z,18.40
2022-09-06T15:46:16.459Z,18.47
2022-09-06T15:48:48.571Z,18.45
2022-09-06T15:51:20.064Z,18.43
2022-09-06T15:53:47.102Z,18.40
2022-09-06T15:56:15.883Z,18.39
2022-09-06T15:58:43.342Z,18.40
2022-09-06T16:01:12.937Z,18.40
2022-09-06T16:03:42.380Z,18.43
2022-09-06T16:08:55.599Z,18.42
2022-09-06T16:11:22.091Z,18.38
2022-09-06T16:13:48.512Z,18.34
2022-09-06T16:16:16.461Z,18.33
2022-09-06T16:18:46.558Z,18.35
2022-09-06T16:21:18.526Z,18.38
2022-09-06T16:23:53.735Z,18.39
2022-09-06T16:26:21.833Z,18.40
2022-09-06T16:28:50.063Z,18.36
2022-09-06T16:31:17.402Z,18.33
2022-09-06T16:33:45.460Z,18.32
2022-09-06T16:36:13.764Z,18.32
2022-09-06T16:38:41.025Z,18.33
2022-09-06T16:41:25.132Z,18.39
2022-09-06T16:43:55.186Z,18.44
2022-09-06T16:46:24.869Z,18.47
2022-09-06T16:48:53.244Z,18.52
2022-09-06T16:51:21.808Z,18.57
2022-09-06T16:53:49.236Z,18.54
2022-09-06T16:56:19.054Z,18.57
2022-09-06T16:58:53.218Z,18.60
2022-09-06T17:01:20.415Z,18.57
2022-09-06T17:03:47.586Z,18.58
2022-09-06T17:06:14.463Z,18.55
2022-09-06T17:08:40.951Z,18.60
2022-09-06T17:11:14.669Z,18.59
2022-09-06T17:13:42.385Z,18.57
2022-09-06T17:16:27.454Z,18.52
2022-09-06T17:18:54.192Z,18.45
2022-09-06T17:21:22.730Z,18.40
2022-09-06T17:23:50.459Z,18.35
2022-09-06T17:26:19.516Z,18.32
2022-09-06T17:28:45.964Z,18.34
2022-09-06T17:31:12.872Z,18.25
2022-09-06T17:33:39.520Z,18.20
2022-09-06T17:36:14.820Z,18.22
2022-09-06T17:38:42.847Z,18.17
2022-09-06T17:41:20.052Z,18.10
2022-09-06T17:43:47.293Z,18.01
2022-09-06T17:46:13.678Z,18.02
2022-09-06T17:48:40.089Z,17.97
2022-09-06T17:51:07.612Z,17.92
2022-09-06T17:53:35.251Z,17.82
2022-09-06T17:56:06.058Z,17.85
2022-09-06T17:58:32.606Z,17.77
2022-09-06T18:01:06.129Z,17.69
2022-09-06T18:03:33.031Z,17.70
2022-09-06T18:06:11.053Z,17.68
2022-09-06T18:08:42.336Z,17.64
2022-09-06T18:11:12.450Z,17.59
2022-09-06T18:13:39.071Z,17.56
2022-09-06T18:16:06.417Z,17.55
2022-09-06T18:18:33.981Z,17.52
2022-09-06T18:21:01.366Z,17.47
2022-09-06T18:23:31.611Z,17.37
2022-09-06T18:26:01.905Z,17.25
2022-09-06T18:28:29.300Z,17.19
2022-09-06T18:31:00.031Z,17.08
2022-09-06T18:33:27.147Z,17.09
2022-09-06T18:35:53.612Z,17.07
2022-09-06T18:38:20.716Z,17.05
2022-09-06T18:40:55.019Z,16.99
2022-09-06T18:43:22.472Z,16.95
2022-09-06T18:45:50.504Z,16.83
2022-09-06T18:48:18.095Z,16.91
2022-09-06T18:50:44.843Z,16.81
2022-09-06T18:53:11.747Z,16.82
2022-09-06T18:55:42.478Z,16.64
2022-09-06T18:58:10.742Z,16.67
2022-09-06T19:00:37.755Z,16.74
2022-09-06T19:03:04.581Z,16.77
2022-09-06T19:05:34.013Z,16.79
2022-09-06T19:08:00.394Z,16.74
2022-09-06T19:10:27.323Z,16.75
2022-09-06T19:12:53.947Z,16.77
2022-09-06T19:15:20.335Z,16.64
2022-09-06T19:17:50.278Z,16.48
2022-09-06T19:20:18.243Z,16.37
2022-09-06T19:22:44.631Z,16.19
2022-09-06T19:25:10.996Z,16.08
2022-09-06T19:27:38.271Z,16.02
2022-09-06T19:30:06.809Z,16.03
2022-09-06T19:32:34.046Z,16.02
2022-09-06T19:35:01.379Z,15.96
2022-09-06T19:37:29.102Z,15.90
2022-09-06T19:39:55.893Z,15.96
2022-09-06T19:42:22.396Z,15.92
2022-09-06T19:44:48.763Z,15.94
2022-09-06T19:47:15.134Z,16.00
2022-09-06T19:49:41.603Z,15.90
2022-09-06T19:52:09.446Z,15.67
2022-09-06T19:54:37.230Z,15.62
2022-09-06T19:57:04.079Z,15.56
2022-09-06T19:59:30.692Z,15.50
2022-09-06T20:01:57.120Z,15.60
2022-09-06T20:04:23.734Z,15.55
2022-09-06T20:06:50.116Z,15.50
2022-09-06T20:09:16.618Z,15.44
2022-09-06T20:11:43.112Z,15.38
2022-09-06T20:14:10.643Z,15.41
2022-09-06T20:16:41.470Z,15.35
2022-09-06T20:19:08.728Z,15.34
2022-09-06T20:21:35.120Z,15.25
2022-09-06T20:24:01.721Z,15.35
2022-09-06T20:26:30.248Z,15.41
2022-09-06T20:29:02.043Z,15.37
2022-09-06T20:31:30.313Z,15.39
2022-09-06T20:33:59.695Z,15.41
2022-09-06T20:36:26.189Z,15.50
2022-09-06T20:38:52.678Z,15.49
2022-09-06T20:41:21.179Z,15.52
2022-09-06T20:43:55.710Z,15.47
2022-09-06T20:46:24.594Z,15.45
2022-09-06T20:48:51.725Z,15.53
2022-09-06T20:51:20.915Z,15.50
2022-09-06T20:53:52.776Z,15.51
2022-09-06T20:56:22.898Z,15.45
2022-09-06T20:58:51.856Z,15.42
2022-09-06T21:01:22.515Z,15.42
2022-09-06T21:03:51.832Z,15.45
2022-09-06T21:06:19.302Z,15.46
2022-09-06T21:08:46.527Z,15.44
2022-09-06T21:11:13.135Z,15.50
2022-09-06T21:13:39.671Z,15.50
2022-09-06T21:16:06.500Z,15.47
2022-09-06T21:18:34.971Z,15.43
2022-09-06T21:21:07.959Z,15.46
2022-09-06T21:23:37.536Z,15.46
2022-09-06T21:26:08.370Z,15.41
2022-09-06T21:28:36.670Z,15.37
2022-09-06T21:31:08.114Z,15.30
2022-09-06T21:33:36.206Z,15.18
2022-09-06T21:36:06.800Z,15.09
2022-09-06T21:38:34.700Z,15.00
2022-09-06T21:41:01.535Z,15.06
2022-09-06T21:43:28.010Z,15.11
2022-09-06T21:45:54.392Z,15.15
2022-09-06T21:48:20.760Z,15.18
2022-09-06T21:50:51.329Z,15.08
2022-09-06T21:53:17.995Z,15.10
2022-09-06T21:55:44.982Z,15.07
2022-09-06T21:58:13.107Z,15.03
2022-09-06T22:00:40.539Z,14.97
2022-09-06T22:03:07.899Z,14.90
2022-09-06T22:05:34.792Z,14.88
2022-09-06T22:08:01.292Z,14.88
2022-09-06T22:10:28.022Z,14.92
2022-09-06T22:12:54.446Z,15.03
2022-09-06T22:15:22.036Z,15.02
2022-09-06T22:17:48.678Z,14.91
2022-09-06T22:20:15.262Z,14.79
2022-09-06T22:22:43.872Z,14.81
2022-09-06T22:25:10.222Z,14.82
2022-09-06T22:27:37.182Z,14.85
2022-09-06T22:30:04.426Z,14.85
2022-09-06T22:32:30.826Z,14.84
2022-09-06T22:34:57.267Z,14.75
2022-09-06T22:37:24.085Z,14.81
2022-09-06T22:39:50.612Z,14.78
2022-09-06T22:42:17.072Z,14.83
2022-09-06T22:44:43.484Z,14.92
2022-09-06T22:47:09.844Z,14.95
2022-09-06T22:49:36.218Z,14.91
2022-09-06T22:52:03.075Z,14.87
2022-09-06T22:54:29.450Z,14.87
2022-09-06T22:56:55.817Z,14.88
2022-09-06T22:59:22.323Z,14.96
2022-09-06T23:01:48.687Z,15.00
2022-09-06T23:04:15.097Z,15.06
2022-09-06T23:06:41.547Z,15.05
2022-09-06T23:09:08.013Z,14.93
2022-09-06T23:11:34.409Z,14.93
2022-09-06T23:14:00.945Z,14.98
2022-09-06T23:16:28.285Z,15.01
2022-09-06T23:18:55.341Z,14.94
2022-09-06T23:21:24.496Z,14.92
2022-09-06T23:23:52.649Z,14.91
2022-09-06T23:26:21.875Z,14.88
2022-09-06T23:28:51.652Z,14.78
2022-09-06T23:31:18.236Z,14.65
2022-09-06T23:33:44.630Z,14.67
2022-09-06T23:36:13.205Z,14.63
2022-09-06T23:38:40.898Z,14.56
2022-09-06T23:41:09.734Z,14.59
2022-09-06T23:43:36.728Z,14.56
2022-09-06T23:46:03.177Z,14.43
2022-09-06T23:48:29.755Z,14.39
2022-09-06T23:50:56.483Z,14.41
2022-09-06T23:53:22.916Z,14.46
2022-09-06T23:55:49.378Z,14.41
2022-09-06T23:58:15.829Z,14.42
